Gustavus, Alaska
Current Conditions -  °F | °C
As of 9:11 PM on Thursday 30 Oct 2014 (Local Time) from PAGS Reporting Station
Overcast Overcast  
Wind Chill: 41°   Ceiling: 3500
Heat Index: 41°   Visibility: 10mi
Dew Point: 39°   Wind: 0mph
Humidity: 93%   Direction: NA
Pressure: 29.44"   Gusts: NA
Location:  58.41°N, 135.74°W
Report Text: PAGS 310511Z AUTO 00000KT 10SM OVC035 05/04 A2944 RMK VIA PHONE
Loading
Personal Weather Stations






























Interactive Weather Map
Tropical Storm Tracking
New forecast layout! Learn more

10-Day Weather Forecast

Advertisements
Track Severe Weather on mobile